This is the latest recevied weather packets stored in our database for station/object W3AJR. If no packets are shown the sender has not sent any weather packets the latest 10 day(s).
| Time | Temp. | Humidity | Pressure | Rain* | Wind** | Luminosity | Snow |
|---|---|---|---|---|---|---|---|
| 1777656322 | 17.78° C | 41% | 1012.8 hPa | 0 mm | - | 721 W/m² | - |
| 1777656018 | 17.78° C | 40% | 1013 hPa | 0 mm | - | 717 W/m² | - |
| 1777655714 | 17.22° C | 43% | 1013 hPa | 0 mm | - | 665 W/m² | - |
| 1777655411 | 17.22° C | 40% | 1012.9 hPa | 0 mm | - | 531 W/m² | - |
| 1777655108 | 16.67° C | 43% | 1013.2 hPa | 0 mm | - | 592 W/m² | - |
| 1777654805 | 17.22° C | 42% | 1013.2 hPa | 0 mm | - | 713 W/m² | - |
| 1777654503 | 16.67° C | 44% | 1013.4 hPa | 0 mm | - | 771 W/m² | - |
| 1777654201 | 16.67° C | 42% | 1013.5 hPa | 0 mm | - | 779 W/m² | - |
| 1777653898 | 16.67° C | 44% | 1013.5 hPa | 0 mm | - | 774 W/m² | - |
| 1777653594 | 16.67° C | 43% | 1013.7 hPa | 0 mm | - | 737 W/m² | - |
| 1777653290 | 16.11° C | 44% | 1013.4 hPa | 0 mm | - | 736 W/m² | - |
| 1777652987 | 16.11° C | 46% | 1013.6 hPa | 0 mm | - | 711 W/m² | - |
| 1777652684 | 16.67° C | 44% | 1013.8 hPa | 0 mm | - | 759 W/m² | - |
| 1777652381 | 16.11° C | 47% | 1013.9 hPa | 0 mm | - | 789 W/m² | - |
| 1777652078 | 16.11° C | 47% | 1014 hPa | 0 mm | - | 788 W/m² | - |
| 1777651774 | 16.11° C | 43% | 1013.9 hPa | 0 mm | - | 798 W/m² | - |
| 1777651471 | 15.56° C | 47% | 1013.8 hPa | 0 mm | - | 812 W/m² | - |
| 1777651169 | 16.11° C | 45% | 1014.2 hPa | 0 mm | - | 803 W/m² | - |
| 1777650866 | 16.11° C | 44% | 1014.5 hPa | 0 mm | - | 813 W/m² | - |
| 1777650562 | 16.11° C | 44% | 1014.4 hPa | 0 mm | - | 829 W/m² | - |
| 1777650260 | 16.11° C | 47% | 1014.6 hPa | 0 mm | - | 848 W/m² | - |
| 1777649956 | 15.56° C | 47% | 1014.7 hPa | 0 mm | - | 838 W/m² | - |
| 1777649654 | 15.56° C | 46% | 1014.8 hPa | 0 mm | - | 863 W/m² | - |
| 1777649350 | 15° C | 46% | 1014.9 hPa | 0 mm | - | 863 W/m² | - |
| 1777649047 | 15.56° C | 45% | 1015 hPa | 0 mm | - | 865 W/m² | - |
* Rain latest hour (hover to see other rain measurements)
** Current wind speed in m/s (hover to see current wind gust speed)